Observations for NASHVILLE METRO, TN (BNA)

KBNA 220453Z 18003KT 10SM CLR 24/21 A3011 RMK AO2 SLP188 T02440211  
KBNA 220353Z 19004KT 10SM CLR 25/21 A3013 RMK AO2 SLP194 T02500211  
KBNA 220253Z 16003KT 10SM FEW250 27/22 A3014 RMK AO2 SLP198 T02670217 53012 
KBNA 220153Z 00000KT 10SM SCT120 28/21 A3013 RMK AO2 SLP195 T02830211   
KBNA 220053Z 19005KT 10SM SCT070 29/21 A3011 RMK AO2 SLP188 T02940206   
KBNA 212353Z 20004KT 10SM SCT065 32/20 A3010 RMK AO2 SLP186 T03170200 10350 20306 55001 
KBNA 212253Z 18006KT 10SM FEW060 33/18 A3009 RMK AO2 SLP181 T03330183   
KBNA 212153Z 20004KT 10SM BKN060 BKN080 BKN150 34/19 A3010 RMK AO2 SLP184 T03440189 
KBNA 212053Z 27006KT 10SM SCT065 35/21 A3011 RMK AO2 SLP186 T03500206 58014 
KBNA 211953Z VRB05KT 10SM FEW050 SCT250 34/21 A3012 RMK AO2 SLP191 T03390206
KBNA 211853Z 25003KT 10SM FEW055 FEW070 SCT250 31/21 A3014 RMK AO2 SLP198 ECLIPSE EVENT NOW T03110206   
KBNA 211753Z 25005KT 10SM FEW048 SCT060 SCT075 SCT250 33/21 A3015 RMK AO2 SLP201 ECLIPSE EVENT NOW T03330206 10339 20228 58015  
KBNA 211653Z 21007KT 10SM FEW046 SCT250 33/21 A3017 RMK AO2 SLP208 T03330211
KBNA 211553Z 00000KT 10SM FEW040 FEW250 32/21 A3019 RMK AO2 SLP214 T03220211
KBNA 211453Z 19004KT 10SM FEW030 FEW250 30/21 A3019 RMK AO2 SLP217 T03000211 51007  
KBNA 211353Z 16003KT 10SM FEW070 FEW250 28/22 A3019 RMK AO2 SLP215 T02780217 $  
KBNA 211253Z 00000KT 10SM FEW070 FEW250 26/22 A3018 RMK AO2 SLP214 T02560217 $  
KBNA 211153Z 00000KT 8SM FEW025 FEW150 SCT250 23/21 A3017 RMK AO2 SLP210 T02280211 10239 20211 53016 $  
KBNA 211053Z 00000KT 10SM FEW250 22/20 A3015 RMK AO2 SLP203 T02170200 $ 
KBNA 210953Z 00000KT 10SM FEW250 22/20 A3013 RMK AO2 SLP197 T02220200 $ 
KBNA 210853Z 00000KT 10SM FEW250 23/21 A3013 RMK AO2 SLP193 T02280206 56001 $   
KBNA 210753Z 00000KT 10SM BKN250 23/21 A3013 RMK AO2 SLP193 T02330206 $ 
KBNA 210653Z 15003KT 10SM SCT250 23/21 A3012 RMK AO2 SLP192 T02330206   
KBNA 210553Z 00000KT 10SM FEW250 24/21 A3013 RMK AO2 SLP195 T02390206 10306 20239 403560222 50004   
KBNA 210453Z 00000KT 10SM FEW250 26/20 A3014 RMK AO2 SLP197 T02560200